sensor_id;sensor_type;location;lat;lon;timestamp;pressure;altitude;pressure_sealevel;temperature;humidity
74613;BME280;63119;51.788;8.824;2022-10-31T00:01:14;100544.09;;;12.33;77.68
74613;BME280;63119;51.788;8.824;2022-10-31T00:03:40;100543.31;;;12.31;78.16
74613;BME280;63119;51.788;8.824;2022-10-31T00:06:05;100547.84;;;12.17;79.50
74613;BME280;63119;51.788;8.824;2022-10-31T00:08:30;100550.16;;;12.09;79.28
74613;BME280;63119;51.788;8.824;2022-10-31T00:10:55;100543.19;;;12.20;78.57
74613;BME280;63119;51.788;8.824;2022-10-31T00:13:21;100552.22;;;12.18;79.28
74613;BME280;63119;51.788;8.824;2022-10-31T00:15:46;100546.91;;;12.18;78.32
74613;BME280;63119;51.788;8.824;2022-10-31T00:18:11;100547.59;;;12.07;79.06
74613;BME280;63119;51.788;8.824;2022-10-31T00:20:37;100546.38;;;12.13;79.33
74613;BME280;63119;51.788;8.824;2022-10-31T00:23:03;100552.84;;;11.94;80.06
74613;BME280;63119;51.788;8.824;2022-10-31T00:25:33;100556.25;;;11.96;80.18
74613;BME280;63119;51.788;8.824;2022-10-31T00:27:59;100553.66;;;12.09;79.12
74613;BME280;63119;51.788;8.824;2022-10-31T00:30:24;100558.19;;;12.07;79.58
74613;BME280;63119;51.788;8.824;2022-10-31T00:32:50;100563.03;;;12.15;79.29
74613;BME280;63119;51.788;8.824;2022-10-31T00:35:15;100570.03;;;12.16;79.64
74613;BME280;63119;51.788;8.824;2022-10-31T00:37:40;100568.47;;;12.26;79.28
74613;BME280;63119;51.788;8.824;2022-10-31T00:40:06;100573.16;;;12.35;79.90
74613;BME280;63119;51.788;8.824;2022-10-31T00:42:31;100565.44;;;12.44;79.34
74613;BME280;63119;51.788;8.824;2022-10-31T00:44:57;100572.81;;;12.53;79.27
74613;BME280;63119;51.788;8.824;2022-10-31T00:47:22;100568.56;;;12.51;79.98
74613;BME280;63119;51.788;8.824;2022-10-31T00:49:47;100575.88;;;12.47;80.29
74613;BME280;63119;51.788;8.824;2022-10-31T00:52:12;100565.38;;;12.46;80.22
74613;BME280;63119;51.788;8.824;2022-10-31T00:54:38;100568.16;;;12.57;79.63
74613;BME280;63119;51.788;8.824;2022-10-31T00:57:03;100568.47;;;12.65;79.38
74613;BME280;63119;51.788;8.824;2022-10-31T00:59:28;100571.13;;;12.65;78.99
74613;BME280;63119;51.788;8.824;2022-10-31T01:01:53;100571.13;;;12.65;79.80
74613;BME280;63119;51.788;8.824;2022-10-31T01:04:19;100565.03;;;12.50;80.30
74613;BME280;63119;51.788;8.824;2022-10-31T01:06:44;100579.91;;;12.53;80.70
74613;BME280;63119;51.788;8.824;2022-10-31T01:09:09;100567.41;;;12.55;80.15
74613;BME280;63119;51.788;8.824;2022-10-31T01:11:35;100573.91;;;12.64;80.01
74613;BME280;63119;51.788;8.824;2022-10-31T01:14:00;100567.31;;;12.69;80.11
74613;BME280;63119;51.788;8.824;2022-10-31T01:16:26;100567.00;;;12.61;80.46
74613;BME280;63119;51.788;8.824;2022-10-31T01:18:52;100575.16;;;12.58;80.37
74613;BME280;63119;51.788;8.824;2022-10-31T01:21:20;100572.72;;;12.55;80.86
74613;BME280;63119;51.788;8.824;2022-10-31T01:23:46;100574.84;;;12.63;81.09
74613;BME280;63119;51.788;8.824;2022-10-31T01:26:16;100577.91;;;12.56;81.41
74613;BME280;63119;51.788;8.824;2022-10-31T01:28:50;100570.28;;;12.52;81.15
74613;BME280;63119;51.788;8.824;2022-10-31T01:31:17;100577.16;;;12.54;81.13
74613;BME280;63119;51.788;8.824;2022-10-31T01:33:43;100573.03;;;12.63;81.21
74613;BME280;63119;51.788;8.824;2022-10-31T01:36:16;100569.97;;;12.69;81.39
74613;BME280;63119;51.788;8.824;2022-10-31T01:38:42;100574.00;;;12.62;81.63
74613;BME280;63119;51.788;8.824;2022-10-31T01:41:09;100570.47;;;12.61;82.05
74613;BME280;63119;51.788;8.824;2022-10-31T01:43:52;100572.44;;;12.72;81.33
74613;BME280;63119;51.788;8.824;2022-10-31T01:46:33;100575.63;;;12.77;80.64
74613;BME280;63119;51.788;8.824;2022-10-31T01:49:02;100575.81;;;12.74;80.76
74613;BME280;63119;51.788;8.824;2022-10-31T01:51:33;100575.09;;;12.72;81.21
74613;BME280;63119;51.788;8.824;2022-10-31T01:54:03;100572.88;;;12.79;80.93
74613;BME280;63119;51.788;8.824;2022-10-31T01:56:30;100579.03;;;12.79;81.28
74613;BME280;63119;51.788;8.824;2022-10-31T01:58:59;100571.69;;;12.83;80.71
74613;BME280;63119;51.788;8.824;2022-10-31T02:01:25;100574.22;;;12.72;81.41
74613;BME280;63119;51.788;8.824;2022-10-31T02:03:51;100569.53;;;12.63;81.60
74613;BME280;63119;51.788;8.824;2022-10-31T02:06:44;100564.34;;;12.61;80.83
74613;BME280;63119;51.788;8.824;2022-10-31T02:09:12;100567.53;;;12.66;80.82
74613;BME280;63119;51.788;8.824;2022-10-31T02:11:38;100570.69;;;12.58;81.88
74613;BME280;63119;51.788;8.824;2022-10-31T02:14:05;100563.97;;;12.53;82.14
74613;BME280;63119;51.788;8.824;2022-10-31T02:16:30;100561.56;;;12.63;81.81
74613;BME280;63119;51.788;8.824;2022-10-31T02:18:56;100566.59;;;12.67;81.65
74613;BME280;63119;51.788;8.824;2022-10-31T02:21:45;100560.31;;;12.68;80.86
74613;BME280;63119;51.788;8.824;2022-10-31T02:27:16;100553.94;;;12.58;81.78
74613;BME280;63119;51.788;8.824;2022-10-31T02:30:15;100549.13;;;12.50;81.63
74613;BME280;63119;51.788;8.824;2022-10-31T02:35:16;100557.72;;;12.54;80.63
74613;BME280;63119;51.788;8.824;2022-10-31T02:40:35;100554.75;;;12.46;81.64
74613;BME280;63119;51.788;8.824;2022-10-31T02:43:20;100560.47;;;12.40;81.95
74613;BME280;63119;51.788;8.824;2022-10-31T02:48:41;100557.31;;;12.21;82.20
74613;BME280;63119;51.788;8.824;2022-10-31T02:51:11;100552.25;;;12.30;82.40
74613;BME280;63119;51.788;8.824;2022-10-31T02:53:37;100553.66;;;12.36;82.16
74613;BME280;63119;51.788;8.824;2022-10-31T02:56:11;100544.59;;;12.26;82.22
74613;BME280;63119;51.788;8.824;2022-10-31T02:58:40;100558.06;;;12.23;82.02
74613;BME280;63119;51.788;8.824;2022-10-31T03:06:54;100580.38;;;12.06;82.18
74613;BME280;63119;51.788;8.824;2022-10-31T03:09:32;100590.88;;;12.07;82.32
74613;BME280;63119;51.788;8.824;2022-10-31T03:12:06;100592.41;;;12.12;82.38
74613;BME280;63119;51.788;8.824;2022-10-31T03:14:43;100600.03;;;12.16;82.76
74613;BME280;63119;51.788;8.824;2022-10-31T03:17:15;100597.50;;;12.15;82.26
74613;BME280;63119;51.788;8.824;2022-10-31T03:19:45;100598.38;;;12.15;82.84
74613;BME280;63119;51.788;8.824;2022-10-31T03:22:17;100603.72;;;12.28;82.13
74613;BME280;63119;51.788;8.824;2022-10-31T03:24:44;100600.75;;;12.32;82.41
74613;BME280;63119;51.788;8.824;2022-10-31T03:27:14;100597.78;;;12.24;82.92
74613;BME280;63119;51.788;8.824;2022-10-31T03:29:42;100600.75;;;12.32;83.32
74613;BME280;63119;51.788;8.824;2022-10-31T03:32:13;100596.59;;;12.01;84.21
74613;BME280;63119;51.788;8.824;2022-10-31T03:34:41;100589.09;;;12.08;84.26
74613;BME280;63119;51.788;8.824;2022-10-31T03:37:11;100594.47;;;12.21;83.40
74613;BME280;63119;51.788;8.824;2022-10-31T03:39:40;100593.31;;;12.25;83.13
74613;BME280;63119;51.788;8.824;2022-10-31T03:42:09;100581.84;;;12.24;83.38
74613;BME280;63119;51.788;8.824;2022-10-31T03:44:37;100588.59;;;12.16;83.58
74613;BME280;63119;51.788;8.824;2022-10-31T03:47:04;100579.63;;;12.04;83.62
74613;BME280;63119;51.788;8.824;2022-10-31T03:49:30;100574.09;;;11.80;85.61
74613;BME280;63119;51.788;8.824;2022-10-31T03:55:30;100583.06;;;11.92;85.06
74613;BME280;63119;51.788;8.824;2022-10-31T03:58:00;100571.50;;;11.93;84.00
74613;BME280;63119;51.788;8.824;2022-10-31T04:00:30;100572.16;;;11.96;84.01
74613;BME280;63119;51.788;8.824;2022-10-31T04:03:00;100576.81;;;11.93;83.92
74613;BME280;63119;51.788;8.824;2022-10-31T04:05:29;100576.34;;;11.86;84.36
74613;BME280;63119;51.788;8.824;2022-10-31T04:07:57;100572.28;;;11.81;84.46
74613;BME280;63119;51.788;8.824;2022-10-31T04:10:26;100574.34;;;11.90;83.82
74613;BME280;63119;51.788;8.824;2022-10-31T04:12:56;100582.91;;;11.81;84.42
74613;BME280;63119;51.788;8.824;2022-10-31T04:15:23;100586.00;;;11.87;83.87
74613;BME280;63119;51.788;8.824;2022-10-31T04:17:52;100590.38;;;11.88;83.63
74613;BME280;63119;51.788;8.824;2022-10-31T04:20:29;100580.25;;;11.67;83.48
74613;BME280;63119;51.788;8.824;2022-10-31T04:22:54;100581.63;;;11.58;84.56
74613;BME280;63119;51.788;8.824;2022-10-31T04:25:20;100575.03;;;11.65;83.90
74613;BME280;63119;51.788;8.824;2022-10-31T04:27:45;100583.59;;;11.70;83.47
74613;BME280;63119;51.788;8.824;2022-10-31T04:30:10;100586.47;;;11.66;83.50
74613;BME280;63119;51.788;8.824;2022-10-31T04:32:36;100592.16;;;11.60;83.83
74613;BME280;63119;51.788;8.824;2022-10-31T04:35:01;100593.00;;;11.46;83.90
74613;BME280;63119;51.788;8.824;2022-10-31T04:37:26;100586.69;;;11.48;84.48
74613;BME280;63119;51.788;8.824;2022-10-31T04:39:52;100594.53;;;11.50;83.55
74613;BME280;63119;51.788;8.824;2022-10-31T04:42:17;100592.44;;;11.27;85.60
74613;BME280;63119;51.788;8.824;2022-10-31T04:44:42;100597.00;;;11.39;84.07
74613;BME280;63119;51.788;8.824;2022-10-31T04:47:07;100597.94;;;11.24;84.88
74613;BME280;63119;51.788;8.824;2022-10-31T04:49:33;100591.91;;;11.36;83.70
74613;BME280;63119;51.788;8.824;2022-10-31T04:51:58;100589.81;;;11.41;84.80
74613;BME280;63119;51.788;8.824;2022-10-31T04:54:23;100600.09;;;11.31;84.98
74613;BME280;63119;51.788;8.824;2022-10-31T04:56:48;100601.63;;;11.35;83.47
74613;BME280;63119;51.788;8.824;2022-10-31T04:59:14;100593.38;;;11.40;83.91
74613;BME280;63119;51.788;8.824;2022-10-31T05:01:39;100588.47;;;11.34;83.08
74613;BME280;63119;51.788;8.824;2022-10-31T05:04:04;100593.19;;;11.29;83.56
74613;BME280;63119;51.788;8.824;2022-10-31T05:06:29;100589.31;;;11.34;83.37
74613;BME280;63119;51.788;8.824;2022-10-31T05:08:55;100598.03;;;11.22;83.22
74613;BME280;63119;51.788;8.824;2022-10-31T05:11:20;100591.31;;;11.17;84.31
74613;BME280;63119;51.788;8.824;2022-10-31T05:13:45;100583.28;;;11.18;84.59
74613;BME280;63119;51.788;8.824;2022-10-31T05:16:11;100584.97;;;11.19;84.65
74613;BME280;63119;51.788;8.824;2022-10-31T05:18:36;100577.69;;;11.09;84.45
74613;BME280;63119;51.788;8.824;2022-10-31T05:21:01;100575.53;;;11.15;85.00
74613;BME280;63119;51.788;8.824;2022-10-31T05:23:27;100576.94;;;11.21;84.84
74613;BME280;63119;51.788;8.824;2022-10-31T05:25:52;100580.88;;;11.14;84.70
74613;BME280;63119;51.788;8.824;2022-10-31T05:28:17;100577.38;;;11.13;84.74
74613;BME280;63119;51.788;8.824;2022-10-31T05:30:42;100568.94;;;10.78;86.24
74613;BME280;63119;51.788;8.824;2022-10-31T05:33:08;100583.47;;;10.71;87.32
74613;BME280;63119;51.788;8.824;2022-10-31T05:35:33;100580.75;;;10.87;86.32
74613;BME280;63119;51.788;8.824;2022-10-31T05:37:59;100579.66;;;10.91;84.55
74613;BME280;63119;51.788;8.824;2022-10-31T05:40:25;100577.38;;;10.99;84.25
74613;BME280;63119;51.788;8.824;2022-10-31T05:42:52;100582.97;;;11.09;85.11
74613;BME280;63119;51.788;8.824;2022-10-31T05:45:18;100573.63;;;11.03;83.61
74613;BME280;63119;51.788;8.824;2022-10-31T05:47:54;100583.84;;;11.09;82.65
74613;BME280;63119;51.788;8.824;2022-10-31T05:50:21;100577.69;;;11.09;83.22
74613;BME280;63119;51.788;8.824;2022-10-31T05:52:46;100570.28;;;11.14;83.05
74613;BME280;63119;51.788;8.824;2022-10-31T05:55:12;100573.44;;;11.06;84.52
74613;BME280;63119;51.788;8.824;2022-10-31T05:57:37;100572.56;;;11.06;84.10
74613;BME280;63119;51.788;8.824;2022-10-31T06:00:03;100570.47;;;10.96;83.61
74613;BME280;63119;51.788;8.824;2022-10-31T06:02:29;100568.94;;;10.92;83.94
74613;BME280;63119;51.788;8.824;2022-10-31T06:04:59;100566.13;;;10.95;84.02
74613;BME280;63119;51.788;8.824;2022-10-31T06:07:25;100564.13;;;10.99;83.76
74613;BME280;63119;51.788;8.824;2022-10-31T06:09:50;100550.41;;;10.92;84.13
74613;BME280;63119;51.788;8.824;2022-10-31T06:12:15;100557.59;;;10.90;84.24
74613;BME280;63119;51.788;8.824;2022-10-31T06:14:40;100559.47;;;10.88;83.63
74613;BME280;63119;51.788;8.824;2022-10-31T06:17:06;100559.78;;;10.98;83.62
74613;BME280;63119;51.788;8.824;2022-10-31T06:19:31;100560.38;;;11.03;82.71
74613;BME280;63119;51.788;8.824;2022-10-31T06:21:56;100564.78;;;10.88;83.84
74613;BME280;63119;51.788;8.824;2022-10-31T06:24:22;100562.03;;;10.76;84.75
74613;BME280;63119;51.788;8.824;2022-10-31T06:26:47;100561.38;;;10.86;85.08
74613;BME280;63119;51.788;8.824;2022-10-31T06:29:12;100562.91;;;10.90;84.57
74613;BME280;63119;51.788;8.824;2022-10-31T06:31:38;100555.88;;;10.75;85.36
74613;BME280;63119;51.788;8.824;2022-10-31T06:34:03;100552.06;;;10.65;86.78
74613;BME280;63119;51.788;8.824;2022-10-31T06:36:28;100565.31;;;10.79;85.09
74613;BME280;63119;51.788;8.824;2022-10-31T06:38:53;100568.38;;;10.87;84.22
74613;BME280;63119;51.788;8.824;2022-10-31T06:41:19;100565.56;;;11.05;84.12
74613;BME280;63119;51.788;8.824;2022-10-31T06:43:46;100567.66;;;11.14;84.26
74613;BME280;63119;51.788;8.824;2022-10-31T06:46:12;100569.38;;;11.15;83.61
74613;BME280;63119;51.788;8.824;2022-10-31T06:48:37;100578.25;;;11.28;83.59
74613;BME280;63119;51.788;8.824;2022-10-31T06:51:02;100578.25;;;11.28;84.53
74613;BME280;63119;51.788;8.824;2022-10-31T06:53:28;100585.81;;;11.34;85.45
74613;BME280;63119;51.788;8.824;2022-10-31T06:55:56;100586.59;;;11.50;85.87
74613;BME280;63119;51.788;8.824;2022-10-31T06:58:22;100593.09;;;11.59;84.85
74613;BME280;63119;51.788;8.824;2022-10-31T07:00:47;100595.69;;;11.60;84.92
74613;BME280;63119;51.788;8.824;2022-10-31T07:03:14;100593.69;;;11.64;84.21
74613;BME280;63119;51.788;8.824;2022-10-31T07:05:40;100595.22;;;11.82;83.82
74613;BME280;63119;51.788;8.824;2022-10-31T07:08:09;100591.19;;;12.03;83.48
74613;BME280;63119;51.788;8.824;2022-10-31T07:10:35;100590.88;;;12.22;83.68
74613;BME280;63119;51.788;8.824;2022-10-31T07:13:03;100595.31;;;12.48;81.60
74613;BME280;63119;51.788;8.824;2022-10-31T07:15:33;100604.13;;;12.22;82.37
74613;BME280;63119;51.788;8.824;2022-10-31T07:18:00;100600.88;;;12.31;82.66
74613;BME280;63119;51.788;8.824;2022-10-31T07:20:26;100603.56;;;12.70;81.27
74613;BME280;63119;51.788;8.824;2022-10-31T07:22:51;100597.97;;;13.00;79.65
74613;BME280;63119;51.788;8.824;2022-10-31T07:25:17;100590.25;;;13.09;79.29
74613;BME280;63119;51.788;8.824;2022-10-31T07:27:43;100589.59;;;13.44;78.52
74613;BME280;63119;51.788;8.824;2022-10-31T07:30:10;100597.09;;;13.88;76.90
74613;BME280;63119;51.788;8.824;2022-10-31T07:35:10;100585.09;;;14.18;75.54
74613;BME280;63119;51.788;8.824;2022-10-31T07:37:36;100589.16;;;14.11;76.09
74613;BME280;63119;51.788;8.824;2022-10-31T07:40:03;100590.44;;;14.42;74.99
74613;BME280;63119;51.788;8.824;2022-10-31T07:42:29;100592.59;;;14.61;73.76
74613;BME280;63119;51.788;8.824;2022-10-31T07:44:54;100586.19;;;14.98;73.22
74613;BME280;63119;51.788;8.824;2022-10-31T07:47:19;100580.78;;;15.44;71.61
74613;BME280;63119;51.788;8.824;2022-10-31T07:49:45;100573.97;;;15.07;73.04
74613;BME280;63119;51.788;8.824;2022-10-31T07:52:10;100574.34;;;15.13;73.44
74613;BME280;63119;51.788;8.824;2022-10-31T07:54:35;100577.25;;;15.32;73.20
74613;BME280;63119;51.788;8.824;2022-10-31T07:57:01;100575.50;;;15.55;72.21
74613;BME280;63119;51.788;8.824;2022-10-31T07:59:26;100577.25;;;16.10;71.14
74613;BME280;63119;51.788;8.824;2022-10-31T08:01:52;100583.53;;;16.31;69.83
74613;BME280;63119;51.788;8.824;2022-10-31T08:04:17;100572.34;;;16.26;70.17
74613;BME280;63119;51.788;8.824;2022-10-31T08:06:43;100569.53;;;15.85;72.09
74613;BME280;63119;51.788;8.824;2022-10-31T08:09:11;100569.03;;;15.91;73.20
74613;BME280;63119;51.788;8.824;2022-10-31T08:11:36;100569.06;;;15.80;73.09
74613;BME280;63119;51.788;8.824;2022-10-31T08:14:01;100569.94;;;16.23;71.94
74613;BME280;63119;51.788;8.824;2022-10-31T08:16:27;100572.22;;;15.74;73.60
74613;BME280;63119;51.788;8.824;2022-10-31T08:18:52;100577.53;;;15.63;74.54
74613;BME280;63119;51.788;8.824;2022-10-31T08:21:20;100580.09;;;15.64;74.83
74613;BME280;63119;51.788;8.824;2022-10-31T08:23:46;100572.19;;;15.85;74.54
74613;BME280;63119;51.788;8.824;2022-10-31T08:26:11;100569.91;;;15.80;74.14
74613;BME280;63119;51.788;8.824;2022-10-31T08:28:36;100568.25;;;16.11;74.18
74613;BME280;63119;51.788;8.824;2022-10-31T08:31:01;100567.06;;;16.58;72.73
74613;BME280;63119;51.788;8.824;2022-10-31T08:33:26;100561.84;;;17.19;70.92
74613;BME280;63119;51.788;8.824;2022-10-31T08:35:52;100551.84;;;17.11;71.00
74613;BME280;63119;51.788;8.824;2022-10-31T08:38:17;100558.78;;;17.03;71.92
74613;BME280;63119;51.788;8.824;2022-10-31T08:40:42;100562.84;;;16.97;72.19
74613;BME280;63119;51.788;8.824;2022-10-31T08:43:13;100556.19;;;17.12;71.96
74613;BME280;63119;51.788;8.824;2022-10-31T08:45:38;100555.66;;;17.18;71.85
74613;BME280;63119;51.788;8.824;2022-10-31T08:48:06;100560.50;;;17.04;72.80
74613;BME280;63119;51.788;8.824;2022-10-31T08:50:33;100557.94;;;17.23;71.83
74613;BME280;63119;51.788;8.824;2022-10-31T08:53:07;100559.69;;;17.33;71.96
74613;BME280;63119;51.788;8.824;2022-10-31T08:55:34;100554.66;;;17.40;72.22
74613;BME280;63119;51.788;8.824;2022-10-31T08:58:01;100561.47;;;17.54;71.17
74613;BME280;63119;51.788;8.824;2022-10-31T09:00:26;100565.13;;;17.53;72.24
74613;BME280;63119;51.788;8.824;2022-10-31T09:02:59;100559.28;;;17.59;71.77
74613;BME280;63119;51.788;8.824;2022-10-31T09:05:25;100551.41;;;17.67;71.59
74613;BME280;63119;51.788;8.824;2022-10-31T09:07:50;100545.19;;;17.66;71.97
74613;BME280;63119;51.788;8.824;2022-10-31T09:10:16;100540.16;;;17.73;71.54
74613;BME280;63119;51.788;8.824;2022-10-31T09:12:41;100540.16;;;17.73;72.45
74613;BME280;63119;51.788;8.824;2022-10-31T09:15:07;100539.59;;;17.79;71.39
74613;BME280;63119;51.788;8.824;2022-10-31T09:17:32;100543.84;;;17.81;71.74
74613;BME280;63119;51.788;8.824;2022-10-31T09:19:58;100542.22;;;18.09;70.17
74613;BME280;63119;51.788;8.824;2022-10-31T09:22:23;100545.34;;;18.14;69.97
74613;BME280;63119;51.788;8.824;2022-10-31T09:24:48;100537.16;;;18.25;70.15
74613;BME280;63119;51.788;8.824;2022-10-31T09:27:13;100540.53;;;18.27;70.06
74613;BME280;63119;51.788;8.824;2022-10-31T09:29:39;100536.47;;;18.23;70.13
74613;BME280;63119;51.788;8.824;2022-10-31T09:32:04;100532.66;;;18.26;69.84
74613;BME280;63119;51.788;8.824;2022-10-31T09:34:29;100540.84;;;18.15;70.27
74613;BME280;63119;51.788;8.824;2022-10-31T09:36:55;100541.25;;;18.10;70.66
74613;BME280;63119;51.788;8.824;2022-10-31T09:39:20;100546.19;;;18.15;70.70
74613;BME280;63119;51.788;8.824;2022-10-31T09:42:13;100544.06;;;18.18;70.72
74613;BME280;63119;51.788;8.824;2022-10-31T09:45:03;100537.44;;;18.13;70.12
74613;BME280;63119;51.788;8.824;2022-10-31T09:51:17;100532.69;;;18.35;70.10
74613;BME280;63119;51.788;8.824;2022-10-31T09:53:43;100527.31;;;18.26;69.45
74613;BME280;63119;51.788;8.824;2022-10-31T09:56:18;100530.19;;;17.94;69.03
74613;BME280;63119;51.788;8.824;2022-10-31T09:58:47;100523.03;;;18.04;69.96
74613;BME280;63119;51.788;8.824;2022-10-31T10:02:04;100527.78;;;17.81;69.96
74613;BME280;63119;51.788;8.824;2022-10-31T10:04:17;100525.31;;;17.99;70.51
74613;BME280;63119;51.788;8.824;2022-10-31T10:06:46;100531.91;;;17.95;70.10
74613;BME280;63119;51.788;8.824;2022-10-31T10:09:13;100533.19;;;18.10;69.18
74613;BME280;63119;51.788;8.824;2022-10-31T10:11:54;100531.63;;;17.98;69.23
74613;BME280;63119;51.788;8.824;2022-10-31T10:15:03;100532.88;;;17.94;69.32
74613;BME280;63119;51.788;8.824;2022-10-31T10:17:45;100533.91;;;18.22;68.38
74613;BME280;63119;51.788;8.824;2022-10-31T10:20:49;100531.66;;;18.08;68.06
74613;BME280;63119;51.788;8.824;2022-10-31T10:23:39;100532.97;;;18.32;67.51
74613;BME280;63119;51.788;8.824;2022-10-31T10:26:19;100530.00;;;18.45;67.39
74613;BME280;63119;51.788;8.824;2022-10-31T10:28:50;100524.19;;;18.40;66.96
74613;BME280;63119;51.788;8.824;2022-10-31T10:31:21;100518.84;;;18.21;67.24
74613;BME280;63119;51.788;8.824;2022-10-31T10:36:32;100521.53;;;18.40;66.58
74613;BME280;63119;51.788;8.824;2022-10-31T10:39:16;100519.00;;;18.38;67.03
74613;BME280;63119;51.788;8.824;2022-10-31T10:41:47;100517.59;;;18.44;66.70
74613;BME280;63119;51.788;8.824;2022-10-31T10:44:34;100508.41;;;18.37;66.33
74613;BME280;63119;51.788;8.824;2022-10-31T10:47:21;100500.53;;;18.35;67.09
74613;BME280;63119;51.788;8.824;2022-10-31T10:50:26;100499.09;;;18.31;67.57
74613;BME280;63119;51.788;8.824;2022-10-31T10:56:19;100488.06;;;18.82;66.33
74613;BME280;63119;51.788;8.824;2022-10-31T10:58:47;100486.03;;;19.03;65.32
74613;BME280;63119;51.788;8.824;2022-10-31T11:01:14;100482.72;;;19.29;64.86
74613;BME280;63119;51.788;8.824;2022-10-31T11:03:40;100470.66;;;19.05;64.28
74613;BME280;63119;51.788;8.824;2022-10-31T11:06:20;100478.06;;;19.21;63.41
74613;BME280;63119;51.788;8.824;2022-10-31T11:08:49;100466.81;;;19.18;62.66
74613;BME280;63119;51.788;8.824;2022-10-31T11:11:26;100466.88;;;18.98;62.88
74613;BME280;63119;51.788;8.824;2022-10-31T11:14:21;100467.84;;;18.97;62.51
74613;BME280;63119;51.788;8.824;2022-10-31T11:16:51;100470.91;;;19.12;62.26
74613;BME280;63119;51.788;8.824;2022-10-31T11:19:24;100463.31;;;19.07;62.70
74613;BME280;63119;51.788;8.824;2022-10-31T11:21:51;100461.47;;;19.08;62.23
74613;BME280;63119;51.788;8.824;2022-10-31T11:24:19;100457.66;;;19.10;61.73
74613;BME280;63119;51.788;8.824;2022-10-31T11:26:48;100457.84;;;18.99;62.59
74613;BME280;63119;51.788;8.824;2022-10-31T11:29:24;100451.81;;;19.15;61.40
74613;BME280;63119;51.788;8.824;2022-10-31T11:31:52;100438.72;;;19.12;61.83
74613;BME280;63119;51.788;8.824;2022-10-31T11:34:26;100444.66;;;19.06;61.51
74613;BME280;63119;51.788;8.824;2022-10-31T11:36:53;100439.84;;;19.09;62.12
74613;BME280;63119;51.788;8.824;2022-10-31T11:39:23;100433.63;;;19.09;62.45
74613;BME280;63119;51.788;8.824;2022-10-31T11:41:50;100432.09;;;19.06;61.52
74613;BME280;63119;51.788;8.824;2022-10-31T11:44:27;100426.72;;;19.06;61.69
74613;BME280;63119;51.788;8.824;2022-10-31T11:46:54;100423.03;;;19.17;62.26
74613;BME280;63119;51.788;8.824;2022-10-31T11:51:56;100421.34;;;19.16;62.41
74613;BME280;63119;51.788;8.824;2022-10-31T11:54:29;100419.94;;;19.12;62.53
74613;BME280;63119;51.788;8.824;2022-10-31T11:56:55;100408.13;;;19.05;61.71
74613;BME280;63119;51.788;8.824;2022-10-31T11:59:25;100407.09;;;19.06;61.51
74613;BME280;63119;51.788;8.824;2022-10-31T12:01:53;100403.84;;;19.12;62.13
74613;BME280;63119;51.788;8.824;2022-10-31T12:04:26;100395.25;;;19.08;61.89
74613;BME280;63119;51.788;8.824;2022-10-31T12:06:55;100390.03;;;19.07;61.85
74613;BME280;63119;51.788;8.824;2022-10-31T12:09:23;100387.25;;;18.99;61.98
74613;BME280;63119;51.788;8.824;2022-10-31T12:17:15;100368.03;;;19.03;62.34
74613;BME280;63119;51.788;8.824;2022-10-31T12:25:26;100363.09;;;19.26;61.32
74613;BME280;63119;51.788;8.824;2022-10-31T12:28:37;100364.00;;;19.17;61.58
74613;BME280;63119;51.788;8.824;2022-10-31T12:31:32;100363.00;;;19.18;61.89
74613;BME280;63119;51.788;8.824;2022-10-31T12:39:21;100341.50;;;19.00;62.13
74613;BME280;63119;51.788;8.824;2022-10-31T12:41:52;100330.94;;;18.99;63.17
74613;BME280;63119;51.788;8.824;2022-10-31T12:44:52;100334.75;;;19.24;62.66
74613;BME280;63119;51.788;8.824;2022-10-31T12:47:41;100326.09;;;19.30;62.17
74613;BME280;63119;51.788;8.824;2022-10-31T12:58:06;100312.03;;;19.18;62.49
74613;BME280;63119;51.788;8.824;2022-10-31T13:00:38;100311.59;;;19.23;62.22
74613;BME280;63119;51.788;8.824;2022-10-31T13:03:25;100303.44;;;19.42;61.89
74613;BME280;63119;51.788;8.824;2022-10-31T13:06:03;100305.75;;;19.27;61.48
74613;BME280;63119;51.788;8.824;2022-10-31T13:08:38;100295.72;;;19.29;61.93
74613;BME280;63119;51.788;8.824;2022-10-31T13:11:18;100283.38;;;19.36;61.46
74613;BME280;63119;51.788;8.824;2022-10-31T13:14:19;100283.78;;;19.24;62.25
74613;BME280;63119;51.788;8.824;2022-10-31T13:16:48;100275.63;;;19.16;62.16
74613;BME280;63119;51.788;8.824;2022-10-31T13:19:17;100267.13;;;19.20;62.36
74613;BME280;63119;51.788;8.824;2022-10-31T13:22:05;100264.81;;;19.25;62.04
74613;BME280;63119;51.788;8.824;2022-10-31T13:24:36;100273.22;;;19.40;61.50
74613;BME280;63119;51.788;8.824;2022-10-31T13:27:14;100270.19;;;19.25;62.04
74613;BME280;63119;51.788;8.824;2022-10-31T13:30:20;100256.00;;;19.15;62.31
74613;BME280;63119;51.788;8.824;2022-10-31T13:33:06;100262.97;;;19.08;63.31
74613;BME280;63119;51.788;8.824;2022-10-31T13:35:40;100258.66;;;19.15;62.86
74613;BME280;63119;51.788;8.824;2022-10-31T13:38:21;100257.06;;;19.04;63.66
74613;BME280;63119;51.788;8.824;2022-10-31T13:45:57;100249.03;;;19.04;62.87
74613;BME280;63119;51.788;8.824;2022-10-31T13:51:02;100244.03;;;19.09;63.37
74613;BME280;63119;51.788;8.824;2022-10-31T13:53:44;100251.41;;;19.25;62.54
74613;BME280;63119;51.788;8.824;2022-10-31T13:56:15;100251.97;;;18.84;64.33
74613;BME280;63119;51.788;8.824;2022-10-31T13:58:55;100239.94;;;18.88;64.25
74613;BME280;63119;51.788;8.824;2022-10-31T14:01:22;100240.03;;;18.96;63.85
74613;BME280;63119;51.788;8.824;2022-10-31T14:03:58;100237.66;;;18.93;63.77
74613;BME280;63119;51.788;8.824;2022-10-31T14:06:45;100237.66;;;18.93;64.49
74613;BME280;63119;51.788;8.824;2022-10-31T14:09:29;100224.94;;;18.95;64.66
74613;BME280;63119;51.788;8.824;2022-10-31T14:11:57;100210.06;;;18.83;64.43